createdAt,value
2023-02-03T00:01:17.659Z,1019.6
2023-02-03T00:03:18.708Z,1019.5
2023-02-03T00:05:17.608Z,1019.4
2023-02-03T00:07:21.642Z,1019.4
2023-02-03T00:09:17.593Z,1019.6
2023-02-03T00:11:17.711Z,1019.6
2023-02-03T00:13:17.931Z,1019.4
2023-02-03T00:15:43.421Z,1019.3
2023-02-03T00:17:17.889Z,1019.2
2023-02-03T00:19:21.869Z,1019.2
2023-02-03T00:21:17.540Z,1019.2
2023-02-03T00:23:17.648Z,1019.2
2023-02-03T00:25:23.382Z,1019.3
2023-02-03T00:27:17.588Z,1019.4
2023-02-03T00:29:18.848Z,1019.5
2023-02-03T00:31:27.951Z,1019.5
2023-02-03T00:33:22.032Z,1019.6
2023-02-03T00:35:17.424Z,1019.6
2023-02-03T00:37:17.466Z,1019.7
2023-02-03T00:39:17.479Z,1019.7
2023-02-03T00:41:17.449Z,1019.8
2023-02-03T00:43:19.183Z,1019.9
2023-02-03T00:45:17.428Z,1019.9
2023-02-03T00:47:17.524Z,1020
2023-02-03T00:49:17.471Z,1020.1
2023-02-03T00:51:18.106Z,1020.2
2023-02-03T00:53:17.674Z,1020.1
2023-02-03T00:55:17.429Z,1020.1
2023-02-03T00:57:17.887Z,1020
2023-02-03T00:59:17.419Z,1019.9
2023-02-03T01:01:19.058Z,1019.8
2023-02-03T01:03:21.637Z,1019.8
2023-02-03T01:05:17.983Z,1019.8
2023-02-03T01:07:18.677Z,1019.8
2023-02-03T01:09:19.235Z,1019.9
2023-02-03T01:11:17.584Z,1020
2023-02-03T01:13:18.541Z,1020
2023-02-03T01:15:17.449Z,1019.9
2023-02-03T01:17:17.487Z,1019.8
2023-02-03T01:19:17.411Z,1019.8
2023-02-03T01:21:17.418Z,1019.8
2023-02-03T01:23:17.417Z,1019.7
2023-02-03T01:25:19.196Z,1019.5
2023-02-03T01:27:18.957Z,1019.5
2023-02-03T01:29:17.850Z,1019.5
2023-02-03T01:31:21.987Z,1019.4
2023-02-03T01:33:17.378Z,1019.3
2023-02-03T01:35:17.396Z,1019.3
2023-02-03T01:37:22.520Z,1019.2
2023-02-03T01:39:18.615Z,1019.3
2023-02-03T01:41:19.282Z,1019.3
2023-02-03T01:43:18.004Z,1019.2
2023-02-03T01:45:17.479Z,1019.2
2023-02-03T01:47:18.375Z,1019.2
2023-02-03T01:49:44.353Z,1019.1
2023-02-03T01:51:43.685Z,1019
2023-02-03T01:53:17.657Z,1019
2023-02-03T01:55:17.431Z,1019.1
2023-02-03T01:57:44.179Z,1019.1
2023-02-03T01:59:19.403Z,1019.2
2023-02-03T02:01:19.818Z,1019.3
2023-02-03T02:03:17.447Z,1019.2
2023-02-03T02:05:41.651Z,1019.2
2023-02-03T02:07:29.350Z,1019.3
2023-02-03T02:09:19.423Z,1019.3
2023-02-03T02:11:17.566Z,1019.3
2023-02-03T02:13:17.342Z,1019.2
2023-02-03T02:15:17.328Z,1019.2
2023-02-03T02:17:17.345Z,1019.3
2023-02-03T02:19:17.504Z,1019.2
2023-02-03T02:21:19.799Z,1019.1
2023-02-03T02:23:17.504Z,1019
2023-02-03T02:25:17.587Z,1018.9
2023-02-03T02:27:17.293Z,1018.9
2023-02-03T02:29:21.059Z,1018.9
2023-02-03T02:31:17.556Z,1018.9
2023-02-03T02:33:28.043Z,1018.8
2023-02-03T02:34:56.268Z,1018.8
2023-02-03T02:35:17.630Z,1018.8
2023-02-03T02:37:17.363Z,1018.8
2023-02-03T02:39:18.773Z,1018.8
2023-02-03T02:41:17.465Z,1018.8
2023-02-03T02:43:17.316Z,1018.8
2023-02-03T02:45:17.401Z,1018.8
2023-02-03T02:47:17.287Z,1018.8
2023-02-03T02:49:17.773Z,1018.8
2023-02-03T02:51:17.339Z,1018.8
2023-02-03T02:53:17.421Z,1018.7
2023-02-03T02:55:17.263Z,1018.7
2023-02-03T02:57:17.324Z,1018.7
2023-02-03T02:59:17.605Z,1018.5
2023-02-03T03:01:17.410Z,1018.4
2023-02-03T03:03:17.311Z,1018.4
2023-02-03T03:05:17.370Z,1018.3
2023-02-03T03:07:17.328Z,1018.2
2023-02-03T03:09:17.475Z,1018.1
2023-02-03T03:11:17.253Z,1018.1
2023-02-03T03:13:17.247Z,1018.1
2023-02-03T03:15:17.298Z,1018.1
2023-02-03T03:17:18.974Z,1018
2023-02-03T03:19:17.246Z,1017.9
2023-02-03T03:21:17.229Z,1017.7
2023-02-03T03:23:17.327Z,1017.6
2023-02-03T03:25:17.209Z,1017.6
2023-02-03T03:27:17.341Z,1017.5
2023-02-03T03:29:17.621Z,1017.5
2023-02-03T03:31:17.356Z,1017.4
2023-02-03T03:33:17.225Z,1017.5
2023-02-03T03:35:17.371Z,1017.4
2023-02-03T03:37:17.228Z,1017.5
2023-02-03T03:39:17.455Z,1017.6
2023-02-03T03:41:17.224Z,1017.6
2023-02-03T03:43:17.343Z,1017.7
2023-02-03T03:45:18.663Z,1017.7
2023-02-03T03:47:19.691Z,1017.8
2023-02-03T03:49:17.213Z,1017.8
2023-02-03T03:51:17.399Z,1017.8
2023-02-03T03:53:17.248Z,1017.9
2023-02-03T03:55:17.186Z,1018
2023-02-03T03:57:17.255Z,1018
2023-02-03T03:59:17.217Z,1018
2023-02-03T04:01:17.629Z,1018
2023-02-03T04:03:17.400Z,1018
2023-02-03T04:05:27.887Z,1017.9
2023-02-03T04:07:17.155Z,1018
2023-02-03T04:09:17.145Z,1017.9
2023-02-03T04:11:17.301Z,1017.8
2023-02-03T04:13:17.208Z,1017.6
2023-02-03T04:15:17.161Z,1017.4
2023-02-03T04:17:17.166Z,1017.5
2023-02-03T04:20:02.072Z,1017.5
2023-02-03T04:21:17.312Z,1017.3
2023-02-03T04:23:18.747Z,1017.4
2023-02-03T04:25:17.179Z,1017.5
2023-02-03T04:27:17.654Z,1017.4
2023-02-03T04:29:17.151Z,1017.3
2023-02-03T04:31:17.310Z,1017.2
2023-02-03T04:33:17.242Z,1017.3
2023-02-03T04:35:18.847Z,1017.4
2023-02-03T04:37:17.125Z,1017.5
2023-02-03T04:39:17.255Z,1017.4
2023-02-03T04:41:17.155Z,1017.3
2023-02-03T04:43:17.102Z,1017.3
2023-02-03T04:45:17.267Z,1017.3
2023-02-03T04:47:17.633Z,1017.2
2023-02-03T04:49:17.175Z,1017
2023-02-03T04:51:17.306Z,1017
2023-02-03T04:53:17.169Z,1017.2
2023-02-03T04:55:17.105Z,1017.3
2023-02-03T04:57:17.142Z,1017.2
2023-02-03T04:59:18.227Z,1017.2
2023-02-03T05:01:17.186Z,1017.1
2023-02-03T05:03:18.340Z,1017
2023-02-03T05:05:18.820Z,1017
2023-02-03T05:07:17.077Z,1016.7
2023-02-03T05:09:17.083Z,1016.6
2023-02-03T05:11:17.148Z,1016.4
2023-02-03T05:13:17.133Z,1016.4
2023-02-03T05:15:17.168Z,1016.3
2023-02-03T05:17:17.148Z,1016.4
2023-02-03T05:19:17.131Z,1016.4
2023-02-03T05:21:18.528Z,1016.4
2023-02-03T05:23:17.093Z,1016.2
2023-02-03T05:25:17.219Z,1016
2023-02-03T05:27:17.335Z,1016
2023-02-03T05:29:17.099Z,1016.3
2023-02-03T05:31:17.277Z,1016.4
2023-02-03T05:33:17.134Z,1016.4
2023-02-03T05:35:17.211Z,1016.3
2023-02-03T05:37:17.142Z,1016.2
2023-02-03T05:39:17.050Z,1016.3
2023-02-03T05:41:17.056Z,1016.2
2023-02-03T05:43:17.061Z,1016
2023-02-03T05:45:17.040Z,1015.8
2023-02-03T05:47:17.090Z,1015.9
2023-02-03T05:49:17.118Z,1015.9
2023-02-03T05:51:17.048Z,1015.8
2023-02-03T05:53:17.081Z,1015.6
2023-02-03T05:55:18.146Z,1015.7
2023-02-03T05:57:17.271Z,1015.8
2023-02-03T05:59:17.112Z,1015.8
2023-02-03T06:01:17.116Z,1015.8
2023-02-03T06:03:17.114Z,1015.8
2023-02-03T06:05:21.261Z,1015.8
2023-02-03T06:07:17.070Z,1015.7
2023-02-03T06:09:17.092Z,1015.7
2023-02-03T06:11:17.020Z,1015.7
2023-02-03T06:13:17.002Z,1015.8
2023-02-03T06:15:17.225Z,1015.8
2023-02-03T06:17:18.014Z,1015.8
2023-02-03T06:19:17.861Z,1015.7
2023-02-03T06:21:16.996Z,1015.7
2023-02-03T06:23:16.999Z,1015.9
2023-02-03T06:25:17.067Z,1016.1
2023-02-03T06:27:18.016Z,1016.1
2023-02-03T06:29:17.027Z,1016.2
2023-02-03T06:31:17.115Z,1016.2
2023-02-03T06:33:17.095Z,1016.2
2023-02-03T06:35:17.043Z,1016.1
2023-02-03T06:37:17.026Z,1015.9
2023-02-03T06:39:17.434Z,1015.9
2023-02-03T06:41:19.378Z,1015.8
2023-02-03T06:43:17.002Z,1015.8
2023-02-03T06:45:21.195Z,1015.8
2023-02-03T06:47:16.994Z,1015.7
2023-02-03T06:49:16.990Z,1015.5
2023-02-03T06:51:17.857Z,1015.4
2023-02-03T06:53:16.991Z,1015.4
2023-02-03T06:55:17.033Z,1015.4
2023-02-03T06:57:17.059Z,1015.3
2023-02-03T06:59:16.981Z,1015.2
2023-02-03T07:01:17.098Z,1015.3
2023-02-03T07:03:16.972Z,1015.3
2023-02-03T07:05:17.011Z,1015.2
2023-02-03T07:07:18.317Z,1015.2
2023-02-03T07:09:16.997Z,1015.1
2023-02-03T07:11:16.929Z,1015.2
2023-02-03T07:13:17.061Z,1015.3
2023-02-03T07:15:17.005Z,1015.3
2023-02-03T07:17:17.071Z,1015.4
2023-02-03T07:19:16.904Z,1015.5
2023-02-03T07:21:22.087Z,1015.5
2023-02-03T07:23:16.978Z,1015.4
2023-02-03T07:24:49.361Z,1015.5
2023-02-03T07:26:07.343Z,1015.5
2023-02-03T07:28:07.627Z,1015.5
2023-02-03T07:30:08.797Z,1015.4
2023-02-03T07:32:07.422Z,1015.4
2023-02-03T07:34:07.395Z,1015.3
2023-02-03T07:36:07.379Z,1015.4
2023-02-03T07:38:07.360Z,1015.4
2023-02-03T07:40:08.718Z,1015.3
2023-02-03T07:42:07.480Z,1015.3
2023-02-03T07:44:07.439Z,1015.3
2023-02-03T07:46:15.249Z,1015.4
2023-02-03T07:48:11.794Z,1015.3
2023-02-03T07:50:13.211Z,1015.3
2023-02-03T07:52:17.969Z,1015.2
2023-02-03T07:54:07.523Z,1015.1
2023-02-03T07:56:11.604Z,1015
2023-02-03T07:58:07.441Z,1014.9
2023-02-03T08:00:13.002Z,1014.7
2023-02-03T08:01:48.195Z,1014.7
2023-02-03T08:02:21.440Z,1014.6
2023-02-03T08:04:13.429Z,1014.7
2023-02-03T08:06:29.195Z,1014.8
2023-02-03T08:08:08.101Z,1014.8
2023-02-03T08:10:07.298Z,1014.7
2023-02-03T08:12:07.435Z,1014.7
2023-02-03T08:14:08.521Z,1014.7
2023-02-03T08:16:07.381Z,1014.6
2023-02-03T08:18:08.703Z,1014.5
2023-02-03T08:20:07.324Z,1014.4
2023-02-03T08:22:07.303Z,1014.5
2023-02-03T08:24:07.327Z,1014.6
2023-02-03T08:26:27.218Z,1014.6
2023-02-03T08:28:07.357Z,1014.6
2023-02-03T08:30:07.432Z,1014.5
2023-02-03T08:32:07.367Z,1014.4
2023-02-03T08:34:07.289Z,1014.5
2023-02-03T08:36:07.288Z,1014.5
2023-02-03T08:38:07.334Z,1014.5
2023-02-03T08:40:07.310Z,1014.6
2023-02-03T08:42:07.355Z,1014.6
2023-02-03T08:44:07.303Z,1014.5
2023-02-03T08:46:07.478Z,1014.4
2023-02-03T08:48:07.291Z,1014.5
2023-02-03T08:50:08.564Z,1014.5
2023-02-03T08:52:07.355Z,1014.3
2023-02-03T08:54:07.426Z,1014.3
2023-02-03T08:56:07.286Z,1014.3
2023-02-03T08:58:07.393Z,1014.3
2023-02-03T09:00:09.422Z,1014.3
2023-02-03T09:02:07.363Z,1014.3
2023-02-03T09:04:07.286Z,1014.3
2023-02-03T09:06:11.761Z,1014.3
2023-02-03T09:08:07.300Z,1014.4
2023-02-03T09:10:07.358Z,1014.3
2023-02-03T09:12:07.350Z,1014.3
2023-02-03T09:14:07.494Z,1014.2
2023-02-03T09:16:08.726Z,1014.2
2023-02-03T09:18:07.339Z,1014.2
2023-02-03T09:19:39.523Z,1014.2
2023-02-03T09:20:07.406Z,1014.1
2023-02-03T09:22:08.608Z,1014.1
2023-02-03T09:24:08.623Z,1014.2
2023-02-03T09:26:07.219Z,1014.3
2023-02-03T09:28:07.472Z,1014.4
2023-02-03T09:30:07.262Z,1014.4
2023-02-03T09:32:13.677Z,1014.4
2023-02-03T09:34:08.558Z,1014.5
2023-02-03T09:36:08.619Z,1014.4
2023-02-03T09:38:07.311Z,1014.3
2023-02-03T09:40:09.869Z,1014.2
2023-02-03T09:42:08.559Z,1014.3
2023-02-03T09:44:07.407Z,1014.5
2023-02-03T09:46:07.408Z,1014.6
2023-02-03T09:48:07.561Z,1014.6
2023-02-03T09:50:07.361Z,1014.6
2023-02-03T09:52:07.462Z,1014.6
2023-02-03T09:54:07.378Z,1014.5
2023-02-03T09:56:07.427Z,1014.4
2023-02-03T09:58:08.235Z,1014.4
2023-02-03T10:00:07.337Z,1014.4
2023-02-03T10:02:10.008Z,1014.4
2023-02-03T10:04:07.289Z,1014.4
2023-02-03T10:06:08.537Z,1014.5
2023-02-03T10:08:08.064Z,1014.5
2023-02-03T10:10:09.742Z,1014.5
2023-02-03T10:12:07.299Z,1014.6
2023-02-03T10:14:07.278Z,1014.6
2023-02-03T10:16:07.191Z,1014.8
2023-02-03T10:18:07.164Z,1014.8
2023-02-03T10:20:07.241Z,1014.9
2023-02-03T10:22:07.248Z,1014.8
2023-02-03T10:24:07.542Z,1014.8
2023-02-03T10:26:09.640Z,1014.8
2023-02-03T10:28:09.369Z,1014.7
2023-02-03T10:30:07.276Z,1014.7
2023-02-03T10:32:07.287Z,1014.8
2023-02-03T10:34:07.265Z,1014.8
2023-02-03T10:36:07.345Z,1014.8
2023-02-03T10:38:07.151Z,1014.9
2023-02-03T10:40:08.228Z,1014.9
2023-02-03T10:42:07.186Z,1014.9
2023-02-03T10:44:07.279Z,1015
2023-02-03T10:46:07.315Z,1014.9
2023-02-03T10:48:07.311Z,1014.9
2023-02-03T10:50:07.211Z,1014.9
2023-02-03T10:52:07.204Z,1014.8
2023-02-03T10:54:07.151Z,1014.7
2023-02-03T10:56:07.219Z,1014.6
2023-02-03T10:58:08.186Z,1014.5
2023-02-03T11:00:07.127Z,1014.5
2023-02-03T11:02:07.142Z,1014.6
2023-02-03T11:04:07.106Z,1014.6
2023-02-03T11:06:08.332Z,1014.6
2023-02-03T11:08:07.119Z,1014.5
2023-02-03T11:10:07.112Z,1014.5
2023-02-03T11:12:07.096Z,1014.6
2023-02-03T11:14:07.098Z,1014.7
2023-02-03T11:16:07.146Z,1014.8
2023-02-03T11:18:07.213Z,1014.8
2023-02-03T11:20:07.082Z,1014.9
2023-02-03T11:22:07.083Z,1014.9
2023-02-03T11:24:07.303Z,1014.9
2023-02-03T11:26:07.151Z,1014.9
2023-02-03T11:28:07.167Z,1015
2023-02-03T11:30:07.161Z,1015
2023-02-03T11:32:07.146Z,1015
2023-02-03T11:34:07.083Z,1015.1
2023-02-03T11:36:08.258Z,1015.2
2023-02-03T11:38:07.878Z,1015.1
2023-02-03T11:40:07.041Z,1015.2
2023-02-03T11:42:07.074Z,1015.2
2023-02-03T11:44:07.036Z,1015.3
2023-02-03T11:46:07.090Z,1015.3
2023-02-03T11:48:07.175Z,1015.4
2023-02-03T11:50:08.622Z,1015.5
2023-02-03T11:52:07.046Z,1015.7
2023-02-03T11:54:07.079Z,1015.9
2023-02-03T11:56:07.145Z,1015.9
2023-02-03T11:58:09.547Z,1015.9
2023-02-03T12:00:07.326Z,1015.9
2023-02-03T12:02:07.047Z,1015.8
2023-02-03T12:04:07.309Z,1015.8
2023-02-03T12:06:07.096Z,1015.8
2023-02-03T12:08:15.870Z,1015.7
2023-02-03T12:10:07.052Z,1015.7
2023-02-03T12:12:07.035Z,1015.7
2023-02-03T12:14:29.651Z,1015.8
2023-02-03T12:16:08.428Z,1015.9
2023-02-03T12:18:07.120Z,1015.9
2023-02-03T12:20:37.235Z,1015.9
2023-02-03T12:22:17.702Z,1016
2023-02-03T12:22:58.664Z,1016
2023-02-03T12:24:08.686Z,1015.9
2023-02-03T12:26:07.328Z,1015.8
2023-02-03T12:28:06.184Z,1015.8
2023-02-03T12:28:48.665Z,1016
2023-02-03T12:29:50.405Z,1016
2023-02-03T12:31:37.693Z,1016.1
2023-02-03T12:32:26.540Z,1016.1
2023-02-03T12:34:02.390Z,1016.1
2023-02-03T12:37:04.707Z,1016.2
2023-02-03T12:52:53.636Z,1016.1
2023-02-03T12:54:39.215Z,1015.9
2023-02-03T12:58:00.501Z,1015.9
2023-02-03T13:01:10.669Z,1015.9
2023-02-03T13:03:54.465Z,1016.1
2023-02-03T13:05:32.480Z,1016.1
2023-02-03T13:07:33.863Z,1016.2
2023-02-03T13:08:06.161Z,1016.2
2023-02-03T13:08:40.378Z,1016.2
2023-02-03T13:09:21.737Z,1016.2
2023-02-03T13:11:24.287Z,1016.2
2023-02-03T13:13:23.518Z,1016.2
2023-02-03T13:15:38.471Z,1016.2
2023-02-03T13:17:20.925Z,1016.3
2023-02-03T13:19:22.191Z,1016.4
2023-02-03T13:20:58.410Z,1016.4
2023-02-03T13:21:31.475Z,1016.4
2023-02-03T13:23:22.004Z,1016.6
2023-02-03T13:24:19.323Z,1016.6
2023-02-03T13:25:43.566Z,1016.7
2023-02-03T13:29:13.915Z,1016.7
2023-02-03T13:29:50.474Z,1016.8
2023-02-03T13:30:54.290Z,1016.8
2023-02-03T13:32:07.889Z,1016.9
2023-02-03T13:34:02.358Z,1017
2023-02-03T13:36:28.775Z,1017.2
2023-02-03T13:37:26.997Z,1017.2
2023-02-03T13:37:52.882Z,1017.3
2023-02-03T13:40:12.377Z,1017.3
2023-02-03T13:40:54.231Z,1017.4
2023-02-03T13:43:37.143Z,1017.3
2023-02-03T13:44:42.063Z,1017.3
2023-02-03T13:45:03.668Z,1017.1
2023-02-03T13:46:53.287Z,1016.9
2023-02-03T13:49:07.460Z,1016.7
2023-02-03T13:50:53.145Z,1016.7
2023-02-03T13:52:54.326Z,1016.9
2023-02-03T13:54:54.452Z,1017
2023-02-03T13:56:54.593Z,1016.9
2023-02-03T13:58:53.423Z,1016.9
2023-02-03T14:00:53.185Z,1016.9
2023-02-03T14:02:53.137Z,1017
2023-02-03T14:05:15.655Z,1016.9
2023-02-03T14:06:22.333Z,1016.9
2023-02-03T14:06:54.404Z,1016.9
2023-02-03T14:08:06.291Z,1016.9
2023-02-03T14:09:14.215Z,1017
2023-02-03T14:11:07.033Z,1017
2023-02-03T14:12:54.742Z,1017
2023-02-03T14:15:15.933Z,1017.2
2023-02-03T14:17:05.533Z,1017.4
2023-02-03T14:20:19.748Z,1017.5
2023-02-03T14:22:28.359Z,1017.7
2023-02-03T14:24:04.049Z,1017.8
2023-02-03T14:25:16.375Z,1017.9
2023-02-03T14:27:22.561Z,1018
2023-02-03T14:28:55.565Z,1018
2023-02-03T14:29:07.037Z,1018.1
2023-02-03T14:31:06.720Z,1018.1
2023-02-03T14:33:09.777Z,1018.1
2023-02-03T14:35:15.960Z,1018.1
2023-02-03T14:38:03.117Z,1018
2023-02-03T14:39:23.415Z,1017.9
2023-02-03T14:41:32.407Z,1017.9
2023-02-03T14:43:44.620Z,1017.9
2023-02-03T14:45:11.575Z,1018.1
2023-02-03T14:47:09.965Z,1018.2
2023-02-03T14:47:56.491Z,1018.2
2023-02-03T14:49:15.548Z,1018.3
2023-02-03T14:51:01.680Z,1018.3
2023-02-03T14:52:56.471Z,1018.4
2023-02-03T14:55:16.482Z,1018.4
2023-02-03T14:57:16.325Z,1018.5
2023-02-03T14:59:17.468Z,1018.5
2023-02-03T15:01:05.651Z,1018.5
2023-02-03T15:02:52.540Z,1018.5
2023-02-03T15:04:51.409Z,1018.5
2023-02-03T15:06:51.525Z,1018.4
2023-02-03T15:09:22.178Z,1018.5
2023-02-03T15:10:51.315Z,1018.6
2023-02-03T15:13:01.862Z,1018.6
2023-02-03T15:14:55.742Z,1018.6
2023-02-03T15:16:51.430Z,1018.5
2023-02-03T15:18:55.521Z,1018.6
2023-02-03T15:21:05.431Z,1018.6
2023-02-03T15:22:58.482Z,1018.7
2023-02-03T15:25:13.735Z,1018.8
2023-02-03T15:27:05.989Z,1018.8
2023-02-03T15:28:51.351Z,1018.9
2023-02-03T15:30:53.840Z,1019
2023-02-03T15:32:51.984Z,1019.1
2023-02-03T15:34:51.243Z,1019.1
2023-02-03T15:37:21.722Z,1019.1
2023-02-03T15:39:16.340Z,1018.9
2023-02-03T15:40:57.116Z,1018.9
2023-02-03T15:44:04.076Z,1018.9
2023-02-03T15:45:25.293Z,1019
2023-02-03T15:49:01.697Z,1018.9
2023-02-03T15:51:45.923Z,1019
2023-02-03T15:53:51.221Z,1019.1
2023-02-03T15:54:49.801Z,1019.2
2023-02-03T15:55:17.576Z,1019.2
2023-02-03T15:56:13.939Z,1019.3
2023-02-03T15:58:17.089Z,1019.4
2023-02-03T16:00:13.910Z,1019.3
2023-02-03T16:02:12.764Z,1019.5
2023-02-03T16:04:12.708Z,1019.4
2023-02-03T16:06:12.617Z,1019.2
2023-02-03T16:08:07.102Z,1019.2
2023-02-03T16:10:12.319Z,1019.3
2023-02-03T16:10:51.804Z,1019.3
2023-02-03T16:12:14.743Z,1019.2
2023-02-03T16:13:41.763Z,1019.2
2023-02-03T16:15:41.701Z,1019.1
2023-02-03T16:17:47.233Z,1019.2
2023-02-03T16:19:25.203Z,1019.2
2023-02-03T16:19:47.414Z,1019.2
2023-02-03T16:21:41.667Z,1019.2
2023-02-03T16:23:16.220Z,1019.3
2023-02-03T16:24:19.638Z,1019.2
2023-02-03T16:26:15.006Z,1019.1
2023-02-03T16:28:18.301Z,1019.1
2023-02-03T16:30:36.088Z,1019.1
2023-02-03T16:32:16.700Z,1019.2
2023-02-03T16:36:19.161Z,1019.2
2023-02-03T16:37:42.316Z,1019.3
2023-02-03T16:38:43.393Z,1019.3
2023-02-03T16:40:19.410Z,1019.3
2023-02-03T16:42:27.189Z,1019.3
2023-02-03T16:44:15.087Z,1019.3
2023-02-03T16:45:01.251Z,1019.3
2023-02-03T16:46:21.478Z,1019.3
2023-02-03T16:48:15.136Z,1019.3
2023-02-03T16:50:39.890Z,1019.4
2023-02-03T16:52:18.900Z,1019.2
2023-02-03T16:54:16.590Z,1019.2
2023-02-03T16:55:47.984Z,1019.2
2023-02-03T16:56:30.295Z,1019.1
2023-02-03T16:58:17.121Z,1019.1
2023-02-03T17:00:15.128Z,1019
2023-02-03T17:01:58.019Z,1019
2023-02-03T17:02:41.966Z,1018.8
2023-02-03T17:04:18.330Z,1018.9
2023-02-03T17:06:17.023Z,1019
2023-02-03T17:08:19.413Z,1019.2
2023-02-03T17:10:16.650Z,1019.4
2023-02-03T17:12:16.219Z,1019.3
2023-02-03T17:14:37.551Z,1019.3
2023-02-03T17:16:15.114Z,1019.3
2023-02-03T17:17:46.918Z,1019.4
2023-02-03T17:18:16.906Z,1019.3
2023-02-03T17:19:57.419Z,1019.3
2023-02-03T17:20:18.573Z,1019.4
2023-02-03T17:22:12.535Z,1019.2
2023-02-03T17:24:02.935Z,1019.2
2023-02-03T17:29:21.523Z,1019.2
2023-02-03T17:30:46.035Z,1019.1
2023-02-03T17:32:18.289Z,1019.1
2023-02-03T17:33:59.384Z,1019.1
2023-02-03T17:34:52.812Z,1019.2
2023-02-03T17:36:15.247Z,1019.2
2023-02-03T17:38:15.304Z,1019.3
2023-02-03T17:53:22.006Z,1019
2023-02-03T17:54:51.934Z,1019.2
2023-02-03T17:56:30.187Z,1019.2
2023-02-03T17:58:15.220Z,1019.2
2023-02-03T17:59:48.126Z,1019.2
2023-02-03T18:00:15.297Z,1019.2
2023-02-03T18:02:15.338Z,1019.3
2023-02-03T18:04:37.657Z,1019.3
2023-02-03T18:06:19.758Z,1019.2
2023-02-03T18:08:25.786Z,1019.3
2023-02-03T18:10:15.204Z,1019.5
2023-02-03T18:12:25.721Z,1019.4
2023-02-03T18:14:28.364Z,1019.4
2023-02-03T18:16:46.198Z,1019.6
2023-02-03T18:18:15.166Z,1019.6
2023-02-03T18:20:19.933Z,1019.5
2023-02-03T18:22:17.216Z,1019.4
2023-02-03T18:24:15.145Z,1019.5
2023-02-03T18:26:15.234Z,1019.6
2023-02-03T18:28:30.232Z,1019.7
2023-02-03T18:30:15.190Z,1019.6
2023-02-03T18:32:19.761Z,1019.6
2023-02-03T18:33:37.436Z,1019.6
2023-02-03T18:34:18.138Z,1019.7
2023-02-03T18:35:15.199Z,1019.7
2023-02-03T18:35:59.220Z,1019.7
2023-02-03T18:36:15.321Z,1019.8
2023-02-03T18:38:27.404Z,1019.9
2023-02-03T18:40:16.328Z,1019.8
2023-02-03T18:41:16.083Z,1019.8
2023-02-03T18:42:43.973Z,1019.8
2023-02-03T18:43:11.851Z,1019.8
2023-02-03T18:44:30.915Z,1019.8
2023-02-03T18:46:25.964Z,1019.8
2023-02-03T18:48:15.099Z,1019.8
2023-02-03T18:50:37.567Z,1019.9
2023-02-03T18:52:19.340Z,1020
2023-02-03T18:54:19.593Z,1020.1
2023-02-03T18:56:16.621Z,1020
2023-02-03T18:58:22.948Z,1020
2023-02-03T19:00:19.144Z,1020.1
2023-02-03T19:02:05.201Z,1020.1
2023-02-03T19:02:16.541Z,1020.1
2023-02-03T19:04:17.179Z,1020.2
2023-02-03T19:06:17.835Z,1020.2
2023-02-03T19:08:19.434Z,1020.3
2023-02-03T19:10:16.540Z,1020.3
2023-02-03T19:12:15.183Z,1020.3
2023-02-03T19:14:19.366Z,1020.4
2023-02-03T19:16:41.661Z,1020.4
2023-02-03T19:18:15.166Z,1020.4
2023-02-03T19:20:17.807Z,1020.5
2023-02-03T19:22:16.492Z,1020.6
2023-02-03T19:24:25.588Z,1020.6
2023-02-03T19:26:15.452Z,1020.7
2023-02-03T19:28:20.185Z,1020.6
2023-02-03T19:29:07.583Z,1020.6
2023-02-03T20:45:41.555Z,1022.5
2023-02-03T20:46:27.919Z,1022.6
2023-02-03T20:48:06.259Z,1022.6
2023-02-03T20:50:01.003Z,1022.7
2023-02-03T20:51:52.021Z,1022.8
2023-02-03T20:53:51.743Z,1022.8
2023-02-03T20:55:52.411Z,1022.8
2023-02-03T20:57:52.671Z,1022.8
2023-02-03T20:59:50.628Z,1022.9
2023-02-03T21:02:13.382Z,1022.9
2023-02-03T21:03:30.778Z,1022.9
2023-02-03T21:03:50.567Z,1023
2023-02-03T21:05:00.779Z,1023
2023-02-03T21:06:18.460Z,1023.1
2023-02-03T21:08:02.218Z,1023.1
2023-02-03T21:09:50.739Z,1023.1
2023-02-03T21:10:57.227Z,1023.1
2023-02-03T21:12:01.164Z,1023.1
2023-02-03T21:14:12.011Z,1023.1
2023-02-03T21:16:00.808Z,1023.1
2023-02-03T21:16:29.561Z,1023.1
2023-02-03T21:32:27.977Z,1023.8
2023-02-03T21:35:24.770Z,1024
2023-02-03T21:37:49.249Z,1023.9
2023-02-03T21:38:20.882Z,1024
2023-02-03T21:39:55.011Z,1024
2023-02-03T21:40:30.443Z,1024.1
2023-02-03T21:41:37.630Z,1024.1
2023-02-03T21:42:06.809Z,1024.1
2023-02-03T21:44:12.364Z,1024.2
2023-02-03T21:46:36.548Z,1024.4
2023-02-03T22:01:00.993Z,1024.8
2023-02-03T22:04:20.316Z,1025
2023-02-03T22:05:52.657Z,1025
2023-02-03T22:09:34.863Z,1025
2023-02-03T22:10:10.502Z,1025.1
2023-02-03T22:12:50.971Z,1025
2023-02-03T22:13:39.824Z,1025
2023-02-03T22:14:12.440Z,1025.1
2023-02-03T22:14:45.722Z,1025.1
2023-02-03T22:15:17.685Z,1025.1
2023-02-03T22:16:14.967Z,1025.2
2023-02-03T22:17:26.914Z,1025.3
2023-02-03T22:18:03.357Z,1025.3
2023-02-03T22:18:52.511Z,1025.2
2023-02-03T22:20:54.239Z,1025.3
2023-02-03T22:22:53.096Z,1025.4
2023-02-03T22:25:03.021Z,1025.4
2023-02-03T22:27:29.864Z,1025.4
2023-02-03T22:28:53.666Z,1025.4
2023-02-03T22:31:03.303Z,1025.5
2023-02-03T22:33:17.205Z,1025.6
2023-02-03T22:35:26.146Z,1025.7
2023-02-03T22:36:53.746Z,1025.9
2023-02-03T22:38:55.293Z,1025.8
2023-02-03T22:39:55.422Z,1025.8
2023-02-03T22:41:02.669Z,1025.9
2023-02-03T22:43:02.615Z,1026
2023-02-03T22:44:53.667Z,1026
2023-02-03T22:46:52.351Z,1026.1
2023-02-03T22:48:52.450Z,1026.1
2023-02-03T22:50:52.501Z,1026.2
2023-02-03T22:53:19.970Z,1026.3
2023-02-03T22:54:52.344Z,1026.5
2023-02-03T22:56:52.378Z,1026.4
2023-02-03T22:58:52.381Z,1026.5
2023-02-03T23:00:53.685Z,1026.5
2023-02-03T23:02:52.488Z,1026.6
2023-02-03T23:04:57.270Z,1026.7
2023-02-03T23:06:57.080Z,1026.8
2023-02-03T23:08:39.567Z,1026.8
2023-02-03T23:10:53.742Z,1026.8
2023-02-03T23:12:52.400Z,1026.9
2023-02-03T23:14:52.359Z,1026.9
2023-02-03T23:16:53.407Z,1027
2023-02-03T23:18:52.265Z,1027
2023-02-03T23:20:52.283Z,1027.1
2023-02-03T23:22:52.286Z,1027.1
2023-02-03T23:24:52.293Z,1027.3
2023-02-03T23:26:52.449Z,1027.3
2023-02-03T23:28:53.628Z,1027.4
2023-02-03T23:30:52.505Z,1027.4
2023-02-03T23:32:52.598Z,1027.4
2023-02-03T23:34:52.338Z,1027.5
2023-02-03T23:36:54.768Z,1027.6
2023-02-03T23:38:52.293Z,1027.6
2023-02-03T23:40:52.298Z,1027.7
2023-02-03T23:42:52.285Z,1027.8
2023-02-03T23:44:52.413Z,1027.9
2023-02-03T23:46:52.496Z,1027.9
2023-02-03T23:48:52.374Z,1027.9
2023-02-03T23:50:53.675Z,1027.9
2023-02-03T23:52:52.437Z,1028
2023-02-03T23:54:53.632Z,1028.1
2023-02-03T23:56:52.254Z,1028.1
2023-02-03T23:58:52.287Z,1028.2
